createdAt,value
2022-11-16T00:01:46.355Z,96766.34
2022-11-16T00:04:13.359Z,96746.84
2022-11-16T00:06:40.549Z,96764.78
2022-11-16T00:09:23.029Z,96762.88
2022-11-16T00:11:52.466Z,96755.03
2022-11-16T00:14:21.071Z,96767.69
2022-11-16T00:16:48.232Z,96755.78
2022-11-16T00:19:15.356Z,96753.97
2022-11-16T00:21:45.091Z,96758.94
2022-11-16T00:24:17.965Z,96732.63
2022-11-16T00:26:45.435Z,96747.09
2022-11-16T00:29:21.170Z,96751.13
2022-11-16T00:31:49.103Z,96752.06
2022-11-16T00:34:16.509Z,96749.56
2022-11-16T00:36:43.534Z,96749.56
2022-11-16T00:39:14.921Z,96751.84
2022-11-16T00:41:42.470Z,96743.31
2022-11-16T00:44:10.118Z,96735.78
2022-11-16T00:46:37.593Z,96727.38
2022-11-16T00:49:08.289Z,96717.94
2022-11-16T00:51:36.469Z,96728.28
2022-11-16T00:54:05.863Z,96729.41
2022-11-16T00:56:36.048Z,96725.94
2022-11-16T00:59:03.681Z,96725.41
2022-11-16T01:01:30.593Z,96724.97
2022-11-16T01:03:57.565Z,96716.91
2022-11-16T01:06:24.485Z,96698.00
2022-11-16T01:08:51.489Z,96704.22
2022-11-16T01:11:37.601Z,96700.28
2022-11-16T01:14:08.972Z,96701.06
2022-11-16T01:16:36.208Z,96693.38
2022-11-16T01:19:05.370Z,96668.44
2022-11-16T01:21:33.136Z,96678.50
2022-11-16T01:24:00.044Z,96674.53
2022-11-16T01:26:26.941Z,96664.19
2022-11-16T01:28:53.956Z,96674.41
2022-11-16T01:31:21.582Z,96665.50
2022-11-16T01:33:50.948Z,96669.91
2022-11-16T01:36:22.693Z,96675.06
2022-11-16T01:38:50.651Z,96668.88
2022-11-16T01:41:25.094Z,96673.63
2022-11-16T01:44:05.302Z,96661.22
2022-11-16T01:46:41.402Z,96655.19
2022-11-16T01:49:16.858Z,96663.84
2022-11-16T01:51:49.757Z,96670.56
2022-11-16T01:54:17.133Z,96659.25
2022-11-16T01:56:56.013Z,96559.00
2022-11-16T01:59:48.860Z,96649.19
2022-11-16T02:02:19.806Z,96645.22
2022-11-16T02:04:48.664Z,96651.34
2022-11-16T02:08:00.617Z,96653.38
2022-11-16T02:11:06.869Z,96641.47
2022-11-16T02:13:59.031Z,96649.03
2022-11-16T02:16:31.941Z,96651.47
2022-11-16T02:19:33.896Z,96640.28
2022-11-16T02:22:19.062Z,96642.34
2022-11-16T02:24:57.114Z,96655.06
2022-11-16T02:27:40.405Z,96650.19
2022-11-16T02:30:07.538Z,96639.81
2022-11-16T02:33:00.051Z,96644.09
2022-11-16T02:35:33.700Z,96648.63
2022-11-16T02:38:40.111Z,96648.00
2022-11-16T02:41:12.026Z,96644.84
2022-11-16T02:43:44.952Z,96641.97
2022-11-16T02:46:30.176Z,96642.88
2022-11-16T02:49:02.726Z,96639.53
2022-11-16T02:51:31.417Z,96644.03
2022-11-16T02:54:04.843Z,96635.38
2022-11-16T02:56:41.895Z,96635.25
2022-11-16T02:59:13.110Z,96625.78
2022-11-16T03:01:52.161Z,96622.66
2022-11-16T03:04:32.672Z,96620.63
2022-11-16T03:07:03.998Z,96621.81
2022-11-16T03:09:35.773Z,96617.16
2022-11-16T03:12:10.998Z,96615.63
2022-11-16T03:15:01.700Z,96612.13
2022-11-16T03:17:44.565Z,96598.91
2022-11-16T03:20:27.054Z,96601.94
2022-11-16T03:23:05.214Z,96596.69
2022-11-16T03:25:40.946Z,96597.84
2022-11-16T03:28:20.208Z,96602.66
2022-11-16T03:31:02.473Z,96598.81
2022-11-16T03:33:34.576Z,96588.53
2022-11-16T03:36:10.864Z,96591.53
2022-11-16T03:38:40.776Z,96586.53
2022-11-16T03:41:09.812Z,96578.47
2022-11-16T03:43:39.014Z,96576.03
2022-11-16T03:46:07.559Z,96564.63
2022-11-16T03:48:40.099Z,96568.03
2022-11-16T03:51:18.528Z,96566.84
2022-11-16T03:53:45.416Z,96568.19
2022-11-16T03:56:12.926Z,96558.47
2022-11-16T03:58:39.913Z,96550.50
2022-11-16T04:01:07.154Z,96547.84
2022-11-16T04:03:34.254Z,96544.34
2022-11-16T04:06:19.993Z,96540.00
2022-11-16T04:09:05.731Z,96531.25
2022-11-16T04:11:51.161Z,96529.53
2022-11-16T04:14:39.631Z,96537.84
2022-11-16T04:17:31.394Z,96532.88
2022-11-16T04:20:16.839Z,96520.94
2022-11-16T04:23:29.296Z,96525.94
2022-11-16T04:25:56.516Z,96514.41
2022-11-16T04:28:35.076Z,96525.22
2022-11-16T04:31:23.665Z,96520.09
2022-11-16T04:34:25.517Z,96529.69
2022-11-16T04:37:14.112Z,96470.06
2022-11-16T04:39:41.364Z,96523.34
2022-11-16T04:42:19.701Z,96506.94
2022-11-16T04:45:07.847Z,96524.94
2022-11-16T04:47:54.906Z,96531.19
2022-11-16T04:50:27.180Z,96514.78
2022-11-16T04:52:54.196Z,96532.97
2022-11-16T04:55:21.064Z,96525.94
2022-11-16T04:57:49.583Z,96533.25
2022-11-16T05:00:17.421Z,96520.56
2022-11-16T05:02:45.280Z,96530.03
2022-11-16T05:05:12.822Z,96524.38
2022-11-16T05:07:43.032Z,96528.75
2022-11-16T05:10:16.315Z,96509.78
2022-11-16T05:12:43.444Z,96525.25
2022-11-16T05:15:11.179Z,96508.59
2022-11-16T05:17:40.037Z,96524.50
2022-11-16T05:20:31.789Z,96529.50
2022-11-16T05:23:03.826Z,96518.31
2022-11-16T05:25:36.645Z,96525.41
2022-11-16T05:28:06.646Z,96524.00
2022-11-16T05:30:37.660Z,96510.34
2022-11-16T05:33:05.717Z,96512.47
2022-11-16T05:35:37.161Z,96507.69
2022-11-16T05:38:04.062Z,96502.75
2022-11-16T05:40:34.625Z,96493.88
2022-11-16T05:43:01.539Z,96510.22
2022-11-16T05:45:32.311Z,96506.50
2022-11-16T05:48:00.576Z,96513.91
2022-11-16T05:50:27.684Z,96512.09
2022-11-16T05:53:06.411Z,96472.06
2022-11-16T05:55:35.872Z,96501.31
2022-11-16T05:58:02.855Z,96513.91
2022-11-16T06:00:31.670Z,96513.16
2022-11-16T06:03:00.020Z,96508.66
2022-11-16T06:05:30.912Z,96492.50
2022-11-16T06:07:59.261Z,96500.97
2022-11-16T06:10:26.341Z,96490.28
2022-11-16T06:12:54.229Z,96491.25
2022-11-16T06:15:21.331Z,96502.59
2022-11-16T06:17:48.243Z,96512.38
2022-11-16T06:20:18.493Z,96505.75
2022-11-16T06:22:47.145Z,96495.03
2022-11-16T06:25:14.137Z,96483.94
2022-11-16T06:27:43.729Z,96500.41
2022-11-16T06:30:13.795Z,96499.97
2022-11-16T06:32:41.637Z,96486.75
2022-11-16T06:35:09.603Z,96489.72
2022-11-16T06:37:37.682Z,96505.03
2022-11-16T06:40:06.647Z,96496.53
2022-11-16T06:42:37.036Z,96494.75
2022-11-16T06:45:04.544Z,96491.97
2022-11-16T06:47:37.756Z,96492.34
2022-11-16T06:50:05.422Z,96501.59
2022-11-16T06:52:33.989Z,96486.50
2022-11-16T06:55:01.350Z,96486.25
2022-11-16T06:57:35.588Z,96484.56
2022-11-16T07:00:04.576Z,96469.88
2022-11-16T07:02:33.834Z,96491.63
2022-11-16T07:05:03.904Z,96474.97
2022-11-16T07:07:33.301Z,96469.16
2022-11-16T07:10:02.934Z,96486.88
2022-11-16T07:12:31.385Z,96473.44
2022-11-16T07:14:59.250Z,96474.50
2022-11-16T07:17:29.743Z,96458.75
2022-11-16T07:20:02.597Z,96476.81
2022-11-16T07:22:34.589Z,96473.63
2022-11-16T07:25:03.242Z,96474.06
2022-11-16T07:27:30.215Z,96443.56
2022-11-16T07:29:59.408Z,96449.31
2022-11-16T07:32:58.240Z,96457.34
2022-11-16T07:35:45.496Z,96465.78
2022-11-16T07:38:17.727Z,96465.44
2022-11-16T07:40:46.112Z,96470.03
2022-11-16T07:43:16.483Z,96457.56
2022-11-16T07:49:09.869Z,96455.44
2022-11-16T07:51:51.238Z,96455.28
2022-11-16T07:54:44.318Z,96445.59
2022-11-16T07:57:11.392Z,96445.38
2022-11-16T07:59:41.198Z,96452.91
2022-11-16T08:02:10.363Z,96447.50
2022-11-16T08:04:40.295Z,96443.63
2022-11-16T08:07:09.156Z,96440.03
2022-11-16T08:09:43.633Z,96437.72
2022-11-16T08:12:15.348Z,96438.59
2022-11-16T08:14:43.352Z,96432.13
2022-11-16T08:17:12.275Z,96442.56
2022-11-16T08:19:40.416Z,96444.72
2022-11-16T08:22:09.732Z,96437.44
2022-11-16T08:24:38.766Z,96429.25
2022-11-16T08:27:05.787Z,96433.66
2022-11-16T08:29:36.032Z,96431.81
2022-11-16T08:32:05.421Z,96424.91
2022-11-16T08:34:34.993Z,96425.03
2022-11-16T08:37:03.989Z,96436.88
2022-11-16T08:39:43.608Z,96426.34
2022-11-16T08:42:10.666Z,96423.06
2022-11-16T08:44:38.972Z,96417.25
2022-11-16T08:47:10.881Z,96409.63
2022-11-16T08:49:48.283Z,96391.09
2022-11-16T08:52:30.428Z,96415.09
2022-11-16T08:54:58.777Z,96397.53
2022-11-16T08:57:26.012Z,96404.00
2022-11-16T08:59:57.734Z,96389.41
2022-11-16T09:02:25.781Z,96375.00
2022-11-16T09:04:54.512Z,96381.44
2022-11-16T09:07:22.673Z,96388.94
2022-11-16T09:09:49.770Z,96356.91
2022-11-16T09:15:01.751Z,96375.16
2022-11-16T09:17:30.163Z,96372.94
2022-11-16T09:19:57.115Z,96350.34
2022-11-16T09:22:24.156Z,96359.34
2022-11-16T09:24:51.179Z,96342.94
2022-11-16T09:27:18.113Z,96348.81
2022-11-16T09:29:44.934Z,96351.28
2022-11-16T09:32:16.011Z,96351.00
2022-11-16T09:35:37.259Z,96337.41
2022-11-16T09:38:05.805Z,96341.56
2022-11-16T09:40:42.278Z,96332.75
2022-11-16T09:43:18.329Z,96290.28
2022-11-16T09:46:29.691Z,96314.19
2022-11-16T09:49:00.409Z,96313.13
2022-11-16T09:54:27.622Z,96304.13
2022-11-16T09:56:58.971Z,96288.63
2022-11-16T09:59:51.148Z,96302.94
2022-11-16T10:02:24.298Z,96297.06
2022-11-16T10:05:17.767Z,96279.69
2022-11-16T10:07:49.282Z,96288.22
2022-11-16T10:10:34.938Z,96278.16
2022-11-16T10:13:23.693Z,96267.63
2022-11-16T10:15:53.624Z,96259.56
2022-11-16T10:18:29.543Z,96263.09
2022-11-16T10:21:13.994Z,96249.34
2022-11-16T10:24:24.059Z,96242.75
2022-11-16T10:26:51.534Z,96238.59
2022-11-16T10:29:39.925Z,96239.22
2022-11-16T10:32:28.324Z,96224.72
2022-11-16T10:34:55.334Z,96226.66
2022-11-16T10:37:27.783Z,96223.41
2022-11-16T10:39:54.693Z,96216.25
2022-11-16T10:42:35.808Z,96223.94
2022-11-16T10:45:15.478Z,96203.34
2022-11-16T10:47:51.225Z,96214.75
2022-11-16T10:50:31.919Z,96218.47
2022-11-16T10:53:01.314Z,96211.78
2022-11-16T10:55:31.035Z,96175.91
2022-11-16T10:58:03.005Z,96189.25
2022-11-16T11:00:37.856Z,96200.22
2022-11-16T11:03:06.991Z,96169.22
2022-11-16T11:05:39.250Z,96194.00
2022-11-16T11:08:11.437Z,96182.75
2022-11-16T11:13:27.016Z,96190.47
2022-11-16T11:16:17.992Z,96192.69
2022-11-16T11:18:46.951Z,96178.00
2022-11-16T11:21:19.460Z,96177.44
2022-11-16T11:23:52.630Z,96169.84
2022-11-16T11:26:42.929Z,96167.22
2022-11-16T11:29:28.194Z,96162.03
2022-11-16T11:32:00.142Z,96158.13
2022-11-16T11:34:44.126Z,96153.88
2022-11-16T11:37:19.887Z,96143.81
2022-11-16T11:39:46.856Z,96130.75
2022-11-16T11:42:13.693Z,96146.41
2022-11-16T11:44:49.883Z,96150.66
2022-11-16T11:47:58.791Z,96144.38
2022-11-16T11:50:49.351Z,96144.63
2022-11-16T11:53:39.943Z,96138.06
2022-11-16T11:56:10.691Z,96133.00
2022-11-16T11:58:41.161Z,96133.81
2022-11-16T12:01:29.510Z,96136.28
2022-11-16T12:03:56.329Z,96136.31
2022-11-16T12:06:31.495Z,96138.22
2022-11-16T12:09:28.209Z,96134.19
2022-11-16T12:12:16.528Z,96126.09
2022-11-16T12:15:18.011Z,96126.00
2022-11-16T12:17:53.893Z,96121.84
2022-11-16T12:20:30.121Z,96126.34
2022-11-16T12:23:17.177Z,96132.19
2022-11-16T12:25:55.005Z,96129.44
2022-11-16T12:28:22.253Z,96128.84
2022-11-16T12:31:22.780Z,96114.13
2022-11-16T12:34:16.126Z,96112.78
2022-11-16T12:37:21.343Z,96103.09
2022-11-16T12:40:38.157Z,96101.41
2022-11-16T12:43:18.274Z,96107.72
2022-11-16T12:46:00.829Z,96102.59
2022-11-16T12:48:50.936Z,96108.69
2022-11-16T12:51:49.058Z,96089.94
2022-11-16T12:54:18.810Z,96097.63
2022-11-16T12:57:22.767Z,96092.91
2022-11-16T13:00:12.096Z,96091.22
2022-11-16T13:03:00.739Z,96086.72
2022-11-16T13:05:54.452Z,96099.41
2022-11-16T13:08:41.527Z,96094.09
2022-11-16T13:11:18.830Z,96083.78
2022-11-16T13:13:53.387Z,96108.41
2022-11-16T13:16:24.007Z,96096.13
2022-11-16T13:18:52.315Z,96086.88
2022-11-16T13:21:35.706Z,96086.53
2022-11-16T13:24:35.047Z,96096.00
2022-11-16T13:27:39.357Z,96098.59
2022-11-16T13:30:27.690Z,96098.16
2022-11-16T13:33:22.482Z,96087.97
2022-11-16T13:35:49.436Z,96074.72
2022-11-16T13:38:54.473Z,96087.94
2022-11-16T13:41:34.464Z,96085.72
2022-11-16T13:44:20.454Z,96090.69
2022-11-16T13:46:55.727Z,96095.22
2022-11-16T13:49:28.782Z,96085.97
2022-11-16T13:52:21.950Z,96092.75
2022-11-16T13:54:53.688Z,96096.75
2022-11-16T13:57:49.270Z,96110.28
2022-11-16T14:00:33.610Z,96105.50
2022-11-16T14:03:16.092Z,96104.56
2022-11-16T14:05:44.295Z,96100.91
2022-11-16T14:08:20.041Z,96106.47
2022-11-16T14:10:52.879Z,96103.00
2022-11-16T14:13:50.328Z,96095.25
2022-11-16T14:16:17.720Z,96098.53
2022-11-16T14:18:51.008Z,96097.81
2022-11-16T14:21:20.619Z,96094.03
2022-11-16T14:24:12.369Z,96094.28
2022-11-16T14:27:16.974Z,96077.84
2022-11-16T14:30:06.011Z,96088.28
2022-11-16T14:32:47.225Z,96070.47
2022-11-16T14:35:26.585Z,96080.09
2022-11-16T14:41:20.993Z,96078.69
2022-11-16T14:43:54.221Z,96097.41
2022-11-16T14:49:48.802Z,96087.03
2022-11-16T14:52:18.761Z,96085.16
2022-11-16T14:54:55.349Z,96090.69
2022-11-16T14:57:24.295Z,96082.50
2022-11-16T15:00:09.656Z,96037.47
2022-11-16T15:02:37.461Z,96091.91
2022-11-16T15:05:06.955Z,96087.34
2022-11-16T15:07:34.880Z,96101.28
2022-11-16T15:10:02.110Z,96099.94
2022-11-16T15:12:44.077Z,96089.34
2022-11-16T15:15:10.926Z,96092.78
2022-11-16T15:17:44.365Z,96092.88
2022-11-16T15:20:19.837Z,96098.84
2022-11-16T15:22:51.151Z,96097.56
2022-11-16T15:25:34.440Z,96095.59
2022-11-16T15:28:17.078Z,96091.66
2022-11-16T15:30:51.036Z,96102.59
2022-11-16T15:33:45.280Z,96102.38
2022-11-16T15:36:31.477Z,96103.63
2022-11-16T15:39:02.114Z,96097.50
2022-11-16T15:41:30.234Z,96097.72
2022-11-16T15:44:14.118Z,96106.22
2022-11-16T15:46:47.357Z,96099.78
2022-11-16T15:49:38.604Z,96106.53
2022-11-16T15:52:05.925Z,96114.72
2022-11-16T15:54:54.061Z,96118.97
2022-11-16T15:57:23.485Z,96113.81
2022-11-16T15:59:57.193Z,96102.47
2022-11-16T16:02:29.839Z,96120.84
2022-11-16T16:04:56.962Z,96092.09
2022-11-16T16:07:42.613Z,96129.34
2022-11-16T16:10:21.226Z,96138.97
2022-11-16T16:12:52.914Z,96129.59
2022-11-16T16:15:36.915Z,96130.53
2022-11-16T16:18:40.639Z,96120.66
2022-11-16T16:21:09.119Z,96102.19
2022-11-16T16:23:51.525Z,96127.13
2022-11-16T16:26:18.427Z,96128.97
2022-11-16T16:28:47.213Z,96111.53
2022-11-16T16:31:18.382Z,96124.63
2022-11-16T16:33:45.408Z,96111.13
2022-11-16T16:36:13.742Z,96087.13
2022-11-16T16:38:43.996Z,96096.16
2022-11-16T16:41:23.793Z,96115.47
2022-11-16T16:43:54.157Z,96114.69
2022-11-16T16:46:21.832Z,96115.91
2022-11-16T16:48:49.179Z,96113.16
2022-11-16T16:51:16.021Z,96122.00
2022-11-16T16:53:42.880Z,96118.28
2022-11-16T16:56:19.763Z,96106.63
2022-11-16T16:58:58.819Z,96114.97
2022-11-16T17:01:27.775Z,96113.69
2022-11-16T17:03:56.162Z,96113.19
2022-11-16T17:06:23.498Z,96110.75
2022-11-16T17:08:51.313Z,96125.28
2022-11-16T17:11:18.193Z,96113.53
2022-11-16T17:13:45.702Z,96120.03
2022-11-16T17:16:13.122Z,96121.53
2022-11-16T17:18:40.951Z,96125.22
2022-11-16T17:21:09.695Z,96119.59
2022-11-16T17:23:37.634Z,96120.22
2022-11-16T17:26:06.549Z,96125.69
2022-11-16T17:28:34.004Z,96122.63
2022-11-16T17:31:09.920Z,96135.66
2022-11-16T17:33:41.680Z,96119.13
2022-11-16T17:36:15.134Z,96120.50
2022-11-16T17:38:42.090Z,96120.50
2022-11-16T17:41:19.395Z,96124.00
2022-11-16T17:43:47.247Z,96121.69
2022-11-16T17:46:19.175Z,96114.81
2022-11-16T17:48:47.835Z,96100.44
2022-11-16T17:51:18.104Z,96115.47
2022-11-16T17:53:45.671Z,96122.97
2022-11-16T17:56:14.592Z,96107.97
2022-11-16T17:58:41.778Z,96106.75
2022-11-16T18:01:08.724Z,96107.34
2022-11-16T18:03:37.366Z,96123.56
2022-11-16T18:06:15.983Z,96119.13
2022-11-16T18:08:45.653Z,96117.47
2022-11-16T18:11:21.113Z,96114.88
2022-11-16T18:13:51.788Z,96117.66
2022-11-16T18:16:21.126Z,96109.41
2022-11-16T18:18:50.214Z,96109.25
2022-11-16T18:21:20.781Z,96115.44
2022-11-16T18:23:48.132Z,96109.88
2022-11-16T18:26:21.127Z,96111.06
2022-11-16T18:28:49.411Z,96120.06
2022-11-16T18:31:18.779Z,96110.25
2022-11-16T18:33:47.107Z,96120.78
2022-11-16T18:36:19.068Z,96109.53
2022-11-16T18:38:47.689Z,96111.53
2022-11-16T18:41:17.218Z,96123.94
2022-11-16T18:43:52.688Z,96116.38
2022-11-16T18:46:24.118Z,96084.19
2022-11-16T18:48:51.664Z,96113.28
2022-11-16T18:51:20.942Z,96115.78
2022-11-16T18:53:48.877Z,96107.28
2022-11-16T18:56:16.486Z,96107.38
2022-11-16T18:58:52.330Z,96113.03
2022-11-16T19:01:22.835Z,96109.72
2022-11-16T19:03:51.181Z,96102.50
2022-11-16T19:06:18.461Z,96102.97
2022-11-16T19:08:53.740Z,96099.81
2022-11-16T19:11:22.738Z,96094.00
2022-11-16T19:14:04.180Z,96110.06
2022-11-16T19:16:31.773Z,96099.91
2022-11-16T19:18:59.960Z,96105.09
2022-11-16T19:21:27.853Z,96106.66
2022-11-16T19:23:56.228Z,96110.16
2022-11-16T19:26:26.466Z,96113.03
2022-11-16T19:28:54.162Z,96095.00
2022-11-16T19:31:27.008Z,96105.09
2022-11-16T19:34:02.249Z,96106.84
2022-11-16T19:36:30.606Z,96104.72
2022-11-16T19:38:57.824Z,96088.63
2022-11-16T19:41:25.996Z,96096.09
2022-11-16T19:43:59.073Z,96058.13
2022-11-16T19:46:32.578Z,96100.28
2022-11-16T19:49:00.472Z,96111.81
2022-11-16T19:51:29.333Z,96106.94
2022-11-16T19:53:56.978Z,96114.50
2022-11-16T19:56:25.338Z,96099.34
2022-11-16T19:58:52.749Z,96091.19
2022-11-16T20:01:28.742Z,96080.66
2022-11-16T20:03:57.944Z,96082.19
2022-11-16T20:06:29.198Z,96080.53
2022-11-16T20:09:03.725Z,96092.53
2022-11-16T20:11:34.112Z,96067.22
2022-11-16T20:14:03.049Z,96070.56
2022-11-16T20:16:38.159Z,96073.88
2022-11-16T20:19:07.532Z,96087.53
2022-11-16T20:21:41.997Z,96086.44
2022-11-16T20:24:14.419Z,96084.31
2022-11-16T20:26:44.758Z,96086.50
2022-11-16T20:29:12.935Z,96088.81
2022-11-16T20:31:42.743Z,96076.31
2022-11-16T20:34:14.198Z,96082.47
2022-11-16T20:36:43.780Z,96084.25
2022-11-16T20:39:16.238Z,96080.34
2022-11-16T20:41:44.287Z,96086.72
2022-11-16T20:44:18.299Z,96095.69
2022-11-16T20:46:45.425Z,96082.06
2022-11-16T20:49:12.692Z,96085.66
2022-11-16T20:51:39.774Z,96067.66
2022-11-16T20:54:07.100Z,96042.97
2022-11-16T20:56:34.405Z,96081.56
2022-11-16T20:59:01.919Z,96074.34
2022-11-16T21:01:31.939Z,96075.59
2022-11-16T21:04:05.983Z,96076.75
2022-11-16T21:06:33.725Z,96075.84
2022-11-16T21:09:01.025Z,96062.22
2022-11-16T21:11:51.266Z,96074.34
2022-11-16T21:14:19.434Z,96067.94
2022-11-16T21:16:46.401Z,96075.34
2022-11-16T21:19:13.584Z,96074.47
2022-11-16T21:21:40.973Z,96072.44
2022-11-16T21:24:09.011Z,96073.06
2022-11-16T21:26:37.118Z,96070.19
2022-11-16T21:29:04.640Z,96074.63
2022-11-16T21:31:35.153Z,96076.47
2022-11-16T21:34:02.899Z,96080.69
2022-11-16T21:36:31.430Z,96090.81
2022-11-16T21:38:58.641Z,96068.66
2022-11-16T21:41:26.146Z,96070.56
2022-11-16T21:43:53.419Z,96081.56
2022-11-16T21:46:24.951Z,96074.47
2022-11-16T21:48:53.733Z,96068.78
2022-11-16T21:51:22.386Z,96073.88
2022-11-16T21:53:49.291Z,96065.16
2022-11-16T21:56:19.286Z,96075.38
2022-11-16T21:58:46.598Z,96079.53
2022-11-16T22:01:16.052Z,96069.00
2022-11-16T22:03:44.746Z,96073.88
2022-11-16T22:06:33.000Z,96077.22
2022-11-16T22:09:00.181Z,96060.88
2022-11-16T22:11:27.047Z,96052.63
2022-11-16T22:13:53.850Z,96061.03
2022-11-16T22:16:23.501Z,96044.06
2022-11-16T22:18:51.101Z,96042.16
2022-11-16T22:21:17.939Z,96047.91
2022-11-16T22:23:45.073Z,96053.94
2022-11-16T22:26:13.473Z,96032.56
2022-11-16T22:28:40.725Z,96043.53
2022-11-16T22:31:14.844Z,96038.75
2022-11-16T22:33:42.272Z,96026.53
2022-11-16T22:36:10.598Z,96033.16
2022-11-16T22:38:38.036Z,96033.25
2022-11-16T22:41:05.376Z,96032.16
2022-11-16T22:43:32.869Z,96032.00
2022-11-16T22:46:02.409Z,96029.59
2022-11-16T22:48:36.586Z,95973.91
2022-11-16T22:51:27.306Z,96024.69
2022-11-16T22:53:59.208Z,96022.97
2022-11-16T22:56:26.858Z,96028.97
2022-11-16T22:58:54.190Z,96020.75
2022-11-16T23:01:21.474Z,96021.50
2022-11-16T23:03:48.802Z,95985.38
2022-11-16T23:06:16.721Z,96001.88
2022-11-16T23:08:43.663Z,95993.84
2022-11-16T23:11:32.904Z,96018.97
2022-11-16T23:14:18.791Z,96018.47
2022-11-16T23:16:47.246Z,96018.63
2022-11-16T23:19:35.337Z,96019.59
2022-11-16T23:22:21.293Z,96016.16
2022-11-16T23:25:06.962Z,96028.25
2022-11-16T23:27:41.690Z,96023.19
2022-11-16T23:30:12.760Z,96011.47
2022-11-16T23:32:41.454Z,96015.00
2022-11-16T23:35:09.203Z,96007.06
2022-11-16T23:37:53.598Z,95997.19
2022-11-16T23:40:22.077Z,95993.66
2022-11-16T23:43:07.401Z,95992.50
2022-11-16T23:45:34.256Z,95990.44
2022-11-16T23:48:01.160Z,96002.38
2022-11-16T23:50:28.153Z,95978.00
2022-11-16T23:52:55.004Z,95959.88
2022-11-16T23:55:23.206Z,95957.47
2022-11-16T23:57:50.917Z,95987.97
